Time;durP1;ratioP1;P1;durP2;ratioP2;P2;SDS_P1;SDS_P2;PMS_P1;PMS_P2;Temp;Humidity;BMP_temperature;BMP_pressure;BME280_temperature;BME280_humidity;BME280_pressure;Samples;Min_cycle;Max_cycle;Signal;HPM_P1;HPM_P2
2022/04/10 00:01:51;;;;;;;;;;;;;;;3.70;77.15;101818.50;5045899;28;20047;-77
2022/04/10 00:04:17;;;;;;;;;;;;;;;3.63;77.65;101816.78;5046291;28;19928;-76
2022/04/10 00:06:42;;;;;;;;;;;;;;;3.48;77.83;101821.13;5048501;28;19980;-78
2022/04/10 00:09:08;;;;;;;;;;;;;;;3.38;78.76;101827.22;5044680;28;20344;-78
2022/04/10 00:11:33;;;;;;;;;;;;;;;3.30;79.05;101828.97;5047814;28;20328;-79
2022/04/10 00:13:58;;;;;;;;;;;;;;;3.22;79.33;101826.34;5049475;28;19921;-78
2022/04/10 00:16:24;;;;;;;;;;;;;;;3.18;79.45;101830.69;5048758;28;19931;-79
2022/04/10 00:18:49;;;;;;;;;;;;;;;3.16;80.01;101832.41;5050289;28;19932;-79
2022/04/10 00:21:14;;;;;;;;;;;;;;;3.17;80.31;101828.97;5081141;28;19970;-80
2022/04/10 00:23:40;;;;;;;;;;;;;;;3.24;79.88;101825.47;5082237;28;19925;-79
2022/04/10 00:26:05;;;;;;;;;;;;;;;3.18;80.06;101824.63;5047203;28;20009;-78
2022/04/10 00:28:31;;;;;;;;;;;;;;;3.16;80.32;101829.81;5050980;28;19995;-80
2022/04/10 00:30:56;;;;;;;;;;;;;;;3.12;80.30;101827.22;5048636;28;20023;-79
2022/04/10 00:33:22;;;;;;;;;;;;;;;3.09;80.32;101825.47;5048929;28;20011;-78
2022/04/10 00:35:47;;;;;;;;;;;;;;;3.07;80.09;101819.44;5051047;28;20512;-78
2022/04/10 00:38:12;;;;;;;;;;;;;;;2.98;80.55;101825.47;5049067;28;19963;-79
2022/04/10 00:40:38;;;;;;;;;;;;;;;2.96;80.32;101821.16;5051499;28;19917;-78
2022/04/10 00:43:03;;;;;;;;;;;;;;;2.93;81.03;101811.63;5047320;28;19917;-78
2022/04/10 00:45:28;;;;;;;;;;;;;;;2.93;80.69;101819.41;5050175;28;19948;-77
2022/04/10 00:47:54;;;;;;;;;;;;;;;2.92;81.15;101818.56;5049619;28;19971;-77
2022/04/10 00:50:20;;;;;;;;;;;;;;;2.88;81.36;101816.81;5048943;28;19927;-79
2022/04/10 00:52:46;;;;;;;;;;;;;;;2.90;81.30;101819.44;5051483;28;19920;-79
2022/04/10 00:55:12;;;;;;;;;;;;;;;2.87;80.69;101819.41;5050254;28;19928;-78
2022/04/10 00:57:37;;;;;;;;;;;;;;;2.81;80.67;101815.09;5052269;28;19917;-79
2022/04/10 01:00:04;;;;;;;;;;;;;;;2.76;81.02;101819.38;5048905;28;20523;-79
2022/04/10 01:02:29;;;;;;;;;;;;;;;2.70;80.97;101820.25;5052375;28;19920;-80
2022/04/10 01:04:55;;;;;;;;;;;;;;;2.63;81.56;101819.38;5049404;28;19928;-78
2022/04/10 01:07:20;;;;;;;;;;;;;;;2.57;81.69;101821.94;5049576;28;19971;-77
2022/04/10 01:09:45;;;;;;;;;;;;;;;2.52;81.49;101820.22;5051635;28;19924;-78
2022/04/10 01:12:11;;;;;;;;;;;;;;;2.47;81.79;101825.38;5049082;28;20015;-78
2022/04/10 01:14:37;;;;;;;;;;;;;;;2.39;82.11;101832.28;5082508;28;19993;-78
2022/04/10 01:17:02;;;;;;;;;;;;;;;2.31;82.21;101840.91;5049897;28;19924;-77
2022/04/10 01:19:28;;;;;;;;;;;;;;;2.22;82.49;101840.84;5051156;28;19924;-77
2022/04/10 01:21:54;;;;;;;;;;;;;;;2.14;82.65;101843.44;5081175;28;19917;-78
2022/04/10 01:24:19;;;;;;;;;;;;;;;2.10;83.39;101844.28;5047652;28;19960;-78
2022/04/10 01:26:45;;;;;;;;;;;;;;;2.10;83.57;101851.16;5048497;28;19917;-76
2022/04/10 01:29:11;;;;;;;;;;;;;;;2.09;84.13;101852.06;5054273;28;19920;-78
2022/04/10 01:31:37;;;;;;;;;;;;;;;2.16;84.22;101853.81;5057584;28;19987;-80
2022/04/10 01:34:05;;;;;;;;;;;;;;;2.25;84.92;101864.22;5058488;28;19979;-77
2022/04/10 01:36:31;;;;;;;;;;;;;;;2.38;84.53;101861.66;5061781;28;20370;-78
2022/04/10 01:38:57;;;;;;;;;;;;;;;2.47;84.32;101854.81;5058701;28;19916;-78
2022/04/10 01:41:25;;;;;;;;;;;;;;;2.54;84.44;101860.00;5059422;28;19917;-78
2022/04/10 01:43:51;;;;;;;;;;;;;;;2.61;85.31;101856.53;5059843;28;19925;-78
2022/04/10 01:46:17;;;;;;;;;;;;;;;2.66;85.16;101857.44;5039256;28;19936;-78
2022/04/10 01:48:42;;;;;;;;;;;;;;;2.71;85.04;101862.63;5039988;28;19940;-77
2022/04/10 01:51:08;;;;;;;;;;;;;;;2.77;85.17;101860.03;5036086;28;19917;-78
2022/04/10 01:53:34;;;;;;;;;;;;;;;2.76;84.78;101866.09;5041063;28;19924;-78
2022/04/10 01:56:00;;;;;;;;;;;;;;;2.75;84.54;101869.56;5037677;28;19917;-77
2022/04/10 01:58:25;;;;;;;;;;;;;;;2.79;85.13;101866.09;5036479;28;20409;-78
2022/04/10 02:00:50;;;;;;;;;;;;;;;2.82;85.02;101863.53;5051472;28;20297;-78
2022/04/10 02:03:15;;;;;;;;;;;;;;;2.82;84.99;101871.31;5056759;28;19924;-78
2022/04/10 02:05:41;;;;;;;;;;;;;;;2.82;84.93;101873.91;5090342;28;19916;-78
2022/04/10 02:08:06;;;;;;;;;;;;;;;2.79;85.21;101881.69;5090245;28;19917;-77
2022/04/10 02:10:31;;;;;;;;;;;;;;;2.74;85.23;101875.63;5059591;28;20011;-77
2022/04/10 02:12:56;;;;;;;;;;;;;;;2.75;85.79;101872.19;5059762;28;19917;-77
2022/04/10 02:15:22;;;;;;;;;;;;;;;2.74;85.67;101868.69;5074058;28;19916;-78
2022/04/10 02:17:47;;;;;;;;;;;;;;;2.76;85.67;101869.56;5058396;28;19916;-78
2022/04/10 02:20:12;;;;;;;;;;;;;;;2.80;85.68;101869.59;5058166;28;19932;-78
2022/04/10 02:22:38;;;;;;;;;;;;;;;2.75;85.78;101878.22;5058865;28;20023;-79
2022/04/10 02:25:03;;;;;;;;;;;;;;;2.66;85.81;101885.09;5057903;28;19928;-78
2022/04/10 02:27:28;;;;;;;;;;;;;;;2.56;85.71;101886.81;5058062;28;19980;-78
2022/04/10 02:29:54;;;;;;;;;;;;;;;2.43;86.20;101886.75;5059421;28;20003;-79
2022/04/10 02:32:19;;;;;;;;;;;;;;;2.32;86.20;101883.25;5059506;28;19986;-78
2022/04/10 02:34:44;;;;;;;;;;;;;;;2.22;86.26;101881.47;5058678;28;20372;-79
2022/04/10 02:37:10;;;;;;;;;;;;;;;2.11;86.42;101881.41;5056514;28;20016;-79
2022/04/10 02:39:35;;;;;;;;;;;;;;;2.04;86.71;101884.84;5056467;28;19923;-77
2022/04/10 02:42:00;;;;;;;;;;;;;;;1.97;86.91;101879.63;5053625;28;19921;-76
2022/04/10 02:44:26;;;;;;;;;;;;;;;1.94;87.16;101882.19;5055028;28;19924;-79
2022/04/10 02:46:51;;;;;;;;;;;;;;;1.98;86.80;101872.72;5053318;28;19920;-78
2022/04/10 02:49:17;;;;;;;;;;;;;;;1.96;86.65;101874.44;5052687;28;19921;-77
2022/04/10 02:51:42;;;;;;;;;;;;;;;1.95;85.99;101878.75;5084979;28;19924;-78
2022/04/10 02:54:07;;;;;;;;;;;;;;;2.05;85.83;101878.81;5052087;28;19953;-78
2022/04/10 02:56:32;;;;;;;;;;;;;;;2.03;85.64;101876.22;5055100;28;20270;-78
2022/04/10 02:58:58;;;;;;;;;;;;;;;2.05;85.59;101869.28;5054960;28;19917;-78
2022/04/10 03:01:23;;;;;;;;;;;;;;;2.00;85.77;101882.22;5051544;28;20439;-77
2022/04/10 03:03:48;;;;;;;;;;;;;;;2.02;85.39;101887.44;5053100;28;19928;-76
2022/04/10 03:06:14;;;;;;;;;;;;;;;2.03;85.32;101891.75;5052886;28;19935;-77
2022/04/10 03:08:39;;;;;;;;;;;;;;;2.03;85.53;101890.88;5055202;28;19917;-79
2022/04/10 03:11:04;;;;;;;;;;;;;;;1.99;85.54;101885.66;5052628;28;20007;-77
2022/04/10 03:13:30;;;;;;;;;;;;;;;2.00;85.41;101895.19;5055385;28;19924;-79
2022/04/10 03:15:55;;;;;;;;;;;;;;;2.05;85.29;101890.03;5054060;28;19916;-78
2022/04/10 03:18:20;;;;;;;;;;;;;;;2.00;85.23;101899.50;5053296;28;19939;-77
2022/04/10 03:20:45;;;;;;;;;;;;;;;2.01;85.27;101896.06;5052551;28;19917;-78
2022/04/10 03:23:11;;;;;;;;;;;;;;;2.00;85.69;101895.19;5057390;28;19932;-78
2022/04/10 03:25:36;;;;;;;;;;;;;;;1.98;85.85;101894.34;5056679;28;20398;-78
2022/04/10 03:28:01;;;;;;;;;;;;;;;1.95;85.87;101907.25;5056873;28;19927;-78
2022/04/10 03:30:27;;;;;;;;;;;;;;;1.95;85.90;101903.78;5088866;28;19932;-78
2022/04/10 03:32:52;;;;;;;;;;;;;;;2.05;85.54;101894.34;5053540;28;19925;-77
2022/04/10 03:35:17;;;;;;;;;;;;;;;2.07;85.48;101900.41;5049555;28;20268;-78
2022/04/10 03:37:43;;;;;;;;;;;;;;;2.08;85.03;101899.56;5054671;28;19928;-78
2022/04/10 03:40:09;;;;;;;;;;;;;;;2.16;84.48;101895.28;5051853;28;19917;-78
2022/04/10 03:42:39;;;;;;;;;;;;;;;2.11;84.51;101887.47;5056542;28;19928;-77
2022/04/10 03:45:05;;;;;;;;;;;;;;;2.13;84.36;101895.25;5043062;28;19929;-78
2022/04/10 03:47:30;;;;;;;;;;;;;;;2.15;84.27;101890.94;5046168;28;20418;-79
2022/04/10 03:49:55;;;;;;;;;;;;;;;2.13;84.51;101892.66;5056061;28;19925;-79
2022/04/10 03:52:21;;;;;;;;;;;;;;;2.13;84.04;101896.13;5054719;28;19928;-78
2022/04/10 03:54:46;;;;;;;;;;;;;;;2.13;84.18;101900.44;5059301;28;20433;-79
2022/04/10 03:57:11;;;;;;;;;;;;;;;2.05;84.51;101902.97;5049875;28;19943;-79
2022/04/10 03:59:37;;;;;;;;;;;;;;;2.03;84.50;101906.44;5050923;28;19927;-79
2022/04/10 04:02:02;;;;;;;;;;;;;;;2.05;84.60;101900.38;5053983;28;20348;-78
2022/04/10 04:04:27;;;;;;;;;;;;;;;2.06;84.16;101901.28;5056644;28;19960;-79
2022/04/10 04:06:52;;;;;;;;;;;;;;;2.08;84.56;101905.59;5054105;28;19921;-78
2022/04/10 04:09:18;;;;;;;;;;;;;;;2.04;84.32;101903.84;5050375;28;19935;-81
2022/04/10 04:11:43;;;;;;;;;;;;;;;2.11;83.73;101910.81;5050740;28;19942;-79
2022/04/10 04:14:08;;;;;;;;;;;;;;;2.05;83.88;101913.34;5049665;28;19924;-79
2022/04/10 04:16:34;;;;;;;;;;;;;;;2.08;83.53;101928.06;5050952;28;19921;-78
2022/04/10 04:18:59;;;;;;;;;;;;;;;2.10;83.78;101927.22;5052454;28;20469;-76
2022/04/10 04:21:25;;;;;;;;;;;;;;;2.09;84.20;101933.25;5047867;28;20360;-79
2022/04/10 04:23:51;;;;;;;;;;;;;;;2.12;84.10;101924.63;5081235;28;20453;-78
2022/04/10 04:26:16;;;;;;;;;;;;;;;2.21;83.92;101926.41;5048756;28;19924;-77
2022/04/10 04:28:41;;;;;;;;;;;;;;;2.26;84.30;101922.13;5049295;28;20336;-78
2022/04/10 04:31:07;;;;;;;;;;;;;;;2.37;84.00;101925.63;5048211;28;20262;-78
2022/04/10 04:33:32;;;;;;;;;;;;;;;2.45;83.85;101912.69;5049862;28;19956;-80
2022/04/10 04:35:57;;;;;;;;;;;;;;;2.57;83.74;101914.50;5051821;28;19948;-77
2022/04/10 04:38:22;;;;;;;;;;;;;;;2.63;83.23;101919.69;5045510;28;20353;-80
2022/04/10 04:40:48;;;;;;;;;;;;;;;2.75;82.87;101918.88;5048007;28;19920;-78
2022/04/10 04:43:13;;;;;;;;;;;;;;;2.80;82.57;101926.69;5048039;28;19924;-79
2022/04/10 04:45:38;;;;;;;;;;;;;;;2.84;82.22;101918.03;5051053;28;20519;-79
2022/04/10 04:48:04;;;;;;;;;;;;;;;2.86;82.32;101931.88;5061270;28;19940;-77
2022/04/10 04:50:29;;;;;;;;;;;;;;;2.94;82.82;101937.94;5050961;28;19963;-78
2022/04/10 04:52:54;;;;;;;;;;;;;;;3.03;83.00;101968.28;5050219;28;19967;-78
2022/04/10 04:55:20;;;;;;;;;;;;;;;3.29;85.44;101978.72;5049680;28;20374;-77
2022/04/10 04:57:46;;;;;;;;;;;;;;;3.29;88.67;102003.84;5052007;28;19921;-80
2022/04/10 05:00:11;;;;;;;;;;;;;;;3.19;91.51;101993.44;5049132;28;19925;-77
2022/04/10 05:02:37;;;;;;;;;;;;;;;3.11;93.85;101999.47;5052275;28;20219;-78
2022/04/10 05:05:02;;;;;;;;;;;;;;;3.03;94.78;102005.47;5039437;28;20390;-77
2022/04/10 05:07:28;;;;;;;;;;;;;;;2.94;96.05;102008.91;5049273;28;19929;-78
2022/04/10 05:09:53;;;;;;;;;;;;;;;2.97;96.75;102002.88;5050083;28;19920;-79
2022/04/10 05:12:18;;;;;;;;;;;;;;;2.90;97.88;102011.50;5048982;28;20385;-79
2022/04/10 05:14:45;;;;;;;;;;;;;;;2.86;98.67;102026.19;5051705;28;20579;-77
2022/04/10 05:17:11;;;;;;;;;;;;;;;2.85;99.04;102029.66;5049212;28;20702;-78
2022/04/10 05:19:36;;;;;;;;;;;;;;;2.80;98.16;102035.69;5049439;28;19917;-77
2022/04/10 05:22:01;;;;;;;;;;;;;;;2.64;98.59;102033.00;5049232;28;19971;-77
2022/04/10 05:24:26;;;;;;;;;;;;;;;2.61;99.07;102026.06;5047413;28;20356;-78
2022/04/10 05:26:52;;;;;;;;;;;;;;;2.57;99.18;102016.53;5081870;28;19956;-80
2022/04/10 05:29:17;;;;;;;;;;;;;;;2.53;99.11;102012.19;5049740;28;19921;-80
2022/04/10 05:31:42;;;;;;;;;;;;;;;2.57;100.00;102011.34;5051752;28;19917;-79
2022/04/10 05:34:07;;;;;;;;;;;;;;;2.56;99.21;102001.81;5049051;28;20437;-78
2022/04/10 05:36:33;;;;;;;;;;;;;;;2.60;99.56;101998.38;5049328;28;19921;-80
2022/04/10 05:38:58;;;;;;;;;;;;;;;2.66;98.68;101994.94;5048456;28;20107;-79
2022/04/10 05:41:23;;;;;;;;;;;;;;;2.71;98.63;102005.34;5044919;28;19948;-79
2022/04/10 05:43:49;;;;;;;;;;;;;;;2.73;98.45;102008.81;5046512;28;19925;-79
2022/04/10 05:46:15;;;;;;;;;;;;;;;2.70;98.55;102016.59;5046080;28;19921;-80
2022/04/10 05:48:40;;;;;;;;;;;;;;;2.65;98.42;102007.94;5048926;28;19960;-80
2022/04/10 05:51:06;;;;;;;;;;;;;;;2.66;98.41;102020.00;5047658;28;19916;-79
2022/04/10 05:53:31;;;;;;;;;;;;;;;2.63;98.56;102013.09;5036085;28;19925;-78
2022/04/10 05:55:56;;;;;;;;;;;;;;;2.67;98.94;102016.56;5049435;28;19940;-79
2022/04/10 05:58:22;;;;;;;;;;;;;;;2.70;99.17;102029.56;5049329;28;19952;-78
2022/04/10 06:00:48;;;;;;;;;;;;;;;2.75;99.18;102020.94;5050799;28;19970;-78
2022/04/10 06:03:13;;;;;;;;;;;;;;;2.80;99.14;102028.75;5047998;28;19920;-78
2022/04/10 06:05:38;;;;;;;;;;;;;;;2.87;99.87;102027.06;5050876;28;19934;-79
2022/04/10 06:08:04;;;;;;;;;;;;;;;2.93;99.44;102033.16;5049352;28;19924;-78
2022/04/10 06:10:29;;;;;;;;;;;;;;;3.03;100.00;102033.19;5048165;28;19959;-80
2022/04/10 06:12:55;;;;;;;;;;;;;;;3.10;100.00;102040.13;5049888;28;19923;-80
2022/04/10 06:15:20;;;;;;;;;;;;;;;3.19;99.94;102039.28;5049576;28;19932;-80
2022/04/10 06:17:46;;;;;;;;;;;;;;;3.29;100.00;102045.41;5057696;28;20553;-80
2022/04/10 06:20:11;;;;;;;;;;;;;;;3.34;99.65;102048.84;5051775;28;19986;-81
2022/04/10 06:22:36;;;;;;;;;;;;;;;3.39;99.82;102052.34;5052055;28;19927;-81
2022/04/10 06:25:02;;;;;;;;;;;;;;;3.42;99.44;102046.28;5052755;28;19932;-78
2022/04/10 06:27:27;;;;;;;;;;;;;;;3.41;98.96;102050.63;5052548;28;19947;-80
2022/04/10 06:29:53;;;;;;;;;;;;;;;3.41;98.79;102045.44;5054683;28;19923;-82
2022/04/10 06:32:18;;;;;;;;;;;;;;;3.40;98.42;102039.34;5054278;28;20274;-79
2022/04/10 06:34:43;;;;;;;;;;;;;;;3.44;98.17;102047.16;5052532;28;20784;-78
2022/04/10 06:37:09;;;;;;;;;;;;;;;3.50;97.93;102052.34;5051816;28;20401;-79
2022/04/10 06:39:34;;;;;;;;;;;;;;;3.59;97.33;102052.38;5052263;28;19920;-80
2022/04/10 06:42:00;;;;;;;;;;;;;;;3.72;96.75;102067.13;5052878;28;19956;-80
2022/04/10 06:44:25;;;;;;;;;;;;;;;3.97;96.04;102056.75;5049998;28;19955;-79
2022/04/10 06:46:50;;;;;;;;;;;;;;;4.12;95.76;102055.03;5052690;28;19932;-79
2022/04/10 06:49:17;;;;;;;;;;;;;;;4.40;95.58;102060.22;5050943;28;20416;-79
2022/04/10 06:51:42;;;;;;;;;;;;;;;4.86;95.17;102056.63;5053359;28;19917;-80
2022/04/10 06:54:07;;;;;;;;;;;;;;;5.15;93.97;102058.28;5052418;28;19970;-78
2022/04/10 06:56:33;;;;;;;;;;;;;;;5.40;92.52;102044.22;5052344;28;20016;-78
2022/04/10 06:58:58;;;;;;;;;;;;;;;5.49;91.26;102048.53;5054382;28;20090;-79
2022/04/10 07:01:23;;;;;;;;;;;;;;;5.42;90.57;102045.09;5050779;28;19917;-80
2022/04/10 07:03:49;;;;;;;;;;;;;;;5.50;89.28;102041.59;5053991;28;19925;-80
2022/04/10 07:06:14;;;;;;;;;;;;;;;5.58;89.84;102035.44;5051037;28;20043;-78
2022/04/10 07:08:39;;;;;;;;;;;;;;;5.75;89.21;102046.63;5050217;28;19923;-78
2022/04/10 07:11:05;;;;;;;;;;;;;;;6.85;89.26;102049.09;5051194;28;19920;-79
2022/04/10 07:13:30;;;;;;;;;;;;;;;8.30;81.64;102008.59;5051486;28;20377;-81
2022/04/10 07:15:55;;;;;;;;;;;;;;;10.22;75.45;101975.50;5052542;28;19926;-79
2022/04/10 07:18:21;;;;;;;;;;;;;;;12.06;67.90;101938.31;5055467;28;19925;-79
2022/04/10 07:20:46;;;;;;;;;;;;;;;13.73;63.40;101928.38;5047896;28;20323;-74
2022/04/10 07:25:53;;;;;;;;;;;;;;;16.02;50.99;102036.06;5048619;28;21296;-79
2022/04/10 07:28:19;;;;;;;;;;;;;;;15.59;47.36;102056.72;5050047;28;20007;-81
2022/04/10 07:30:44;;;;;;;;;;;;;;;15.74;48.58;102053.28;5050260;28;20000;-82
2022/04/10 07:33:09;;;;;;;;;;;;;;;15.09;47.16;102055.53;5051294;28;19925;-79
2022/04/10 07:35:40;;;;;;;;;;;;;;;17.18;45.61;102052.16;5049396;28;20477;-78
2022/04/10 07:38:05;;;;;;;;;;;;;;;16.51;44.33;102058.31;5051754;28;19917;-80
2022/04/10 07:40:31;;;;;;;;;;;;;;;17.86;41.67;102057.13;5050355;28;20447;-79
2022/04/10 07:42:56;;;;;;;;;;;;;;;16.78;41.99;102065.75;5049931;28;19923;-78
2022/04/10 07:48:03;;;;;;;;;;;;;;;17.89;38.72;102066.72;5046609;28;20917;-79
2022/04/10 07:50:29;;;;;;;;;;;;;;;18.62;38.03;102073.97;5049124;28;20374;-78
2022/04/10 07:52:55;;;;;;;;;;;;;;;17.87;38.22;102073.91;5046093;28;19924;-79
2022/04/10 07:55:21;;;;;;;;;;;;;;;17.99;37.44;102069.75;5046061;28;19935;-80
2022/04/10 07:57:47;;;;;;;;;;;;;;;17.12;38.40;102082.56;5045723;28;19921;-79
2022/04/10 08:00:13;;;;;;;;;;;;;;;17.06;38.44;102078.44;5046404;28;20002;-78
2022/04/10 08:02:42;;;;;;;;;;;;;;;16.78;39.11;102087.84;5045354;28;20413;-78
2022/04/10 08:05:07;;;;;;;;;;;;;;;16.36;38.97;102091.78;5046341;28;19927;-77
2022/04/10 08:07:32;;;;;;;;;;;;;;;15.69;41.32;102100.38;5047168;28;20364;-78
2022/04/10 08:09:58;;;;;;;;;;;;;;;14.61;43.54;102100.81;5046237;28;20014;-78
2022/04/10 08:12:25;;;;;;;;;;;;;;;13.63;44.16;102109.25;5048154;28;19925;-79
2022/04/10 08:14:50;;;;;;;;;;;;;;;14.57;43.23;102099.22;5048728;28;20378;-79
2022/04/10 08:17:16;;;;;;;;;;;;;;;16.25;39.60;102094.13;5048117;28;19927;-78
2022/04/10 08:19:41;;;;;;;;;;;;;;;17.56;37.74;102095.16;5048330;28;19956;-79
2022/04/10 08:22:07;;;;;;;;;;;;;;;17.74;36.45;102103.03;5047899;28;20267;-81
2022/04/10 08:24:32;;;;;;;;;;;;;;;17.02;37.15;102103.44;5049150;28;19968;-83
2022/04/10 08:26:59;;;;;;;;;;;;;;;17.47;35.04;102101.00;5046832;28;20015;-81
2022/04/10 08:29:24;;;;;;;;;;;;;;;17.27;34.68;102102.09;5046784;28;19959;-81
2022/04/10 08:31:49;;;;;;;;;;;;;;;18.37;34.38;102099.38;5049090;28;19955;-80
2022/04/10 08:34:15;;;;;;;;;;;;;;;17.49;34.65;102109.72;5050630;28;19932;-78
2022/04/10 08:36:40;;;;;;;;;;;;;;;16.88;35.12;102114.75;5047468;28;19924;-78
2022/04/10 08:39:05;;;;;;;;;;;;;;;16.89;34.74;102120.91;5047280;28;20318;-78
2022/04/10 08:41:32;;;;;;;;;;;;;;;17.17;36.04;102124.78;5052346;28;19925;-79
2022/04/10 08:44:00;;;;;;;;;;;;;;;17.37;34.53;102121.03;5062269;28;19921;-78
2022/04/10 08:46:26;;;;;;;;;;;;;;;17.49;34.34;102119.50;5039416;28;20318;-78
2022/04/10 08:48:52;;;;;;;;;;;;;;;19.14;32.37;102114.28;5043011;28;19924;-81
2022/04/10 08:51:17;;;;;;;;;;;;;;;19.96;31.73;102117.06;5046323;28;19986;-80
2022/04/10 08:53:44;;;;;;;;;;;;;;;19.41;31.69;102117.03;5046782;28;19921;-78
2022/04/10 08:56:09;;;;;;;;;;;;;;;18.75;32.23;102126.41;5047804;28;20028;-79
2022/04/10 08:58:34;;;;;;;;;;;;;;;19.26;30.76;102120.66;5048557;28;20505;-80
2022/04/10 09:01:00;;;;;;;;;;;;;;;19.30;31.18;102131.00;5047786;28;21114;-79
2022/04/10 09:03:25;;;;;;;;;;;;;;;19.85;30.98;102128.41;5043665;28;19917;-80
2022/04/10 09:06:06;;;;;;;;;;;;;;;20.13;29.84;102131.94;5079566;28;20416;-78
2022/04/10 09:08:32;;;;;;;;;;;;;;;20.63;28.44;102126.78;5046576;28;19940;-80
2022/04/10 09:10:58;;;;;;;;;;;;;;;20.40;28.59;102123.03;5052447;28;20369;-80
2022/04/10 09:13:25;;;;;;;;;;;;;;;19.84;28.85;102131.19;5070115;28;19921;-81
2022/04/10 09:15:50;;;;;;;;;;;;;;;20.14;29.66;102140.78;5029701;28;19967;-81
2022/04/10 09:18:15;;;;;;;;;;;;;;;20.39;29.94;102132.84;5027240;28;20398;-80
2022/04/10 09:20:40;;;;;;;;;;;;;;;19.59;29.75;102133.66;5028031;28;19936;-82
2022/04/10 09:23:09;;;;;;;;;;;;;;;19.72;29.63;102135.53;5027438;28;19986;-84
2022/04/10 09:25:42;;;;;;;;;;;;;;;17.76;32.71;102152.50;5029803;28;19928;-83
2022/04/10 09:28:08;;;;;;;;;;;;;;;18.76;31.42;102144.13;5039920;28;20661;-82
2022/04/10 09:30:34;;;;;;;;;;;;;;;18.60;30.92;102144.19;5034460;28;19921;-84
2022/04/10 09:32:59;;;;;;;;;;;;;;;19.61;29.58;102142.41;5044800;28;19928;-81
2022/04/10 09:35:24;;;;;;;;;;;;;;;19.92;28.65;102150.22;5047418;28;20353;-81
2022/04/10 09:37:52;;;;;;;;;;;;;;;21.17;28.83;102148.91;5046971;28;19916;-81
2022/04/10 09:40:20;;;;;;;;;;;;;;;21.50;28.12;102154.63;5046438;28;20479;-81
2022/04/10 09:42:48;;;;;;;;;;;;;;;20.97;27.59;102147.66;5047305;28;20240;-79
2022/04/10 09:45:28;;;;;;;;;;;;;;;20.39;28.67;102161.38;5045030;28;19955;-80
2022/04/10 09:47:54;;;;;;;;;;;;;;;19.95;28.49;102165.19;5042401;28;19921;-81
2022/04/10 09:50:28;;;;;;;;;;;;;;;21.15;26.84;102157.06;5049745;28;19921;-81
2022/04/10 09:52:54;;;;;;;;;;;;;;;20.83;27.46;102154.84;5047818;28;20027;-80
2022/04/10 09:55:35;;;;;;;;;;;;;;;20.38;27.48;102167.69;5062236;28;20018;-83
2022/04/10 09:58:01;;;;;;;;;;;;;;;21.22;25.78;102159.28;5046685;28;20007;-81
2022/04/10 10:00:27;;;;;;;;;;;;;;;21.41;26.42;102158.81;5041407;28;19920;-81
2022/04/10 10:02:53;;;;;;;;;;;;;;;19.76;27.55;102172.53;5062300;28;19932;-80
2022/04/10 10:05:18;;;;;;;;;;;;;;;20.66;26.63;102163.09;5049433;28;19928;-82
2022/04/10 10:07:44;;;;;;;;;;;;;;;19.89;27.04;102174.47;5048775;28;19925;-81
2022/04/10 10:10:09;;;;;;;;;;;;;;;19.51;28.69;102175.06;5048683;28;19970;-82
2022/04/10 10:12:35;;;;;;;;;;;;;;;19.18;28.49;102171.78;5053346;28;19921;-82
2022/04/10 10:15:01;;;;;;;;;;;;;;;19.14;28.77;102164.91;5045857;28;20009;-80
2022/04/10 10:17:26;;;;;;;;;;;;;;;20.15;28.34;102167.41;5047775;28;19924;-82
2022/04/10 10:19:52;;;;;;;;;;;;;;;20.34;28.14;102166.16;5049121;28;19917;-81
2022/04/10 10:22:17;;;;;;;;;;;;;;;20.39;29.64;102177.41;5048481;28;20008;-82
2022/04/10 10:24:44;;;;;;;;;;;;;;;20.64;28.78;102162.34;5051238;28;20062;-82
2022/04/10 10:27:12;;;;;;;;;;;;;;;20.35;28.54;102167.88;5046955;28;20018;-83
2022/04/10 10:29:48;;;;;;;;;;;;;;;19.20;29.96;102164.53;5052666;28;20059;-83
2022/04/10 10:32:17;;;;;;;;;;;;;;;20.26;29.49;102168.50;5035773;28;19925;-83
2022/04/10 10:34:43;;;;;;;;;;;;;;;20.02;29.58;102169.16;5042054;28;19924;-83
2022/04/10 10:37:09;;;;;;;;;;;;;;;19.45;29.53;102160.31;5048133;28;19917;-81
2022/04/10 10:39:50;;;;;;;;;;;;;;;18.55;31.23;102173.75;5050091;28;19920;-83
2022/04/10 10:42:15;;;;;;;;;;;;;;;17.95;31.95;102174.53;5027835;28;19921;-82
2022/04/10 10:44:42;;;;;;;;;;;;;;;17.67;33.40;102179.59;5031030;28;19967;-84
2022/04/10 10:47:15;;;;;;;;;;;;;;;17.28;34.69;102183.50;5046610;28;19920;-79
2022/04/10 10:49:44;;;;;;;;;;;;;;;15.71;37.01;102187.72;5048552;28;19920;-79
2022/04/10 10:52:10;;;;;;;;;;;;;;;14.68;39.69;102189.59;5076220;28;19928;-77
2022/04/10 10:54:42;;;;;;;;;;;;;;;15.11;39.82;102186.00;5047907;28;20496;-78
2022/04/10 10:57:23;;;;;;;;;;;;;;;15.35;38.51;102180.53;5045011;28;19988;-77
2022/04/10 10:59:50;;;;;;;;;;;;;;;15.30;38.88;102192.22;5045411;28;19939;-78
2022/04/10 11:02:18;;;;;;;;;;;;;;;14.90;38.84;102201.91;5044663;28;19916;-78
2022/04/10 11:04:45;;;;;;;;;;;;;;;14.77;40.12;102193.63;5047366;28;19929;-78
2022/04/10 11:07:10;;;;;;;;;;;;;;;14.00;40.71;102191.47;5044413;28;19921;-77
2022/04/10 11:09:46;;;;;;;;;;;;;;;13.68;41.95;102189.16;5047674;28;19923;-76
2022/04/10 11:12:13;;;;;;;;;;;;;;;13.66;42.12;102182.22;5044951;28;20513;-77
2022/04/10 11:14:39;;;;;;;;;;;;;;;13.53;43.49;102192.41;5047437;28;19920;-77
2022/04/10 11:17:20;;;;;;;;;;;;;;;13.33;43.37;102180.78;5045206;28;20259;-77
2022/04/10 11:19:47;;;;;;;;;;;;;;;13.46;43.26;102178.56;5047756;28;20505;-77
2022/04/10 11:22:13;;;;;;;;;;;;;;;13.08;43.87;102176.38;5045259;28;20317;-77
2022/04/10 11:24:38;;;;;;;;;;;;;;;12.92;44.36;102177.81;5048319;28;19928;-78
2022/04/10 11:27:05;;;;;;;;;;;;;;;12.74;45.31;102181.94;5044778;28;19921;-77
2022/04/10 11:29:32;;;;;;;;;;;;;;;12.63;44.59;102166.50;5078954;28;19921;-79
2022/04/10 11:32:02;;;;;;;;;;;;;;;12.75;45.07;102159.94;5046842;28;19921;-77
2022/04/10 11:34:29;;;;;;;;;;;;;;;12.45;43.87;102163.59;5039978;28;19929;-76
2022/04/10 11:36:55;;;;;;;;;;;;;;;12.64;43.38;102163.81;5068827;28;20395;-76
2022/04/10 11:39:29;;;;;;;;;;;;;;;12.59;43.33;102151.72;5036686;28;19925;-77
2022/04/10 11:42:11;;;;;;;;;;;;;;;12.41;45.28;102159.34;5042444;28;19929;-79
2022/04/10 11:44:37;;;;;;;;;;;;;;;12.23;45.90;102160.78;5039524;28;20063;-77
2022/04/10 11:47:05;;;;;;;;;;;;;;;11.73;45.87;102161.44;5044753;28;20513;-77
2022/04/10 11:49:30;;;;;;;;;;;;;;;11.49;46.55;102157.78;5048452;28;19917;-78
2022/04/10 11:51:57;;;;;;;;;;;;;;;11.71;47.72;102163.25;5044843;28;20641;-75
2022/04/10 11:54:31;;;;;;;;;;;;;;;11.87;46.69;102158.38;5045433;28;19917;-76
2022/04/10 11:56:59;;;;;;;;;;;;;;;11.94;47.18;102156.41;5045313;28;19925;-76
2022/04/10 11:59:25;;;;;;;;;;;;;;;11.93;47.01;102158.22;5045832;28;20009;-77
2022/04/10 12:01:50;;;;;;;;;;;;;;;11.87;46.28;102163.66;5046987;28;19916;-76
2022/04/10 12:04:17;;;;;;;;;;;;;;;12.19;46.02;102156.53;5077237;28;19925;-78
2022/04/10 12:06:42;;;;;;;;;;;;;;;12.22;44.62;102148.53;5047520;28;19925;-79
2022/04/10 12:09:07;;;;;;;;;;;;;;;12.11;42.96;102148.00;5045251;28;19921;-78
2022/04/10 12:11:36;;;;;;;;;;;;;;;12.28;40.73;102140.44;5043856;28;20306;-80
2022/04/10 12:14:13;;;;;;;;;;;;;;;12.35;41.80;102147.22;5045417;28;20321;-77
2022/04/10 12:16:40;;;;;;;;;;;;;;;12.29;42.83;102154.47;5045846;28;19917;-80
2022/04/10 12:19:06;;;;;;;;;;;;;;;12.33;43.27;102150.81;5045082;28;19924;-77
2022/04/10 12:21:32;;;;;;;;;;;;;;;12.45;43.38;102145.16;5045802;28;19929;-76
2022/04/10 12:23:58;;;;;;;;;;;;;;;12.46;41.93;102146.84;5045444;28;19947;-75
2022/04/10 12:26:26;;;;;;;;;;;;;;;12.44;43.41;102147.81;5045245;28;19921;-77
2022/04/10 12:28:52;;;;;;;;;;;;;;;12.54;44.01;102146.59;5045871;28;20010;-76
2022/04/10 12:31:19;;;;;;;;;;;;;;;12.37;41.80;102139.25;5043864;28;19983;-76
2022/04/10 12:33:46;;;;;;;;;;;;;;;12.50;41.50;102143.19;5043269;28;19924;-76
2022/04/10 12:36:20;;;;;;;;;;;;;;;12.26;39.19;102128.22;5041704;28;19929;-77
2022/04/10 12:38:49;;;;;;;;;;;;;;;12.08;40.30;102143.72;5043285;28;19921;-76
2022/04/10 12:41:14;;;;;;;;;;;;;;;12.03;39.75;102142.97;5042030;28;20375;-76
2022/04/10 12:43:40;;;;;;;;;;;;;;;11.95;39.52;102150.25;5043615;28;19917;-76